Time;durP1;ratioP1;P1;durP2;ratioP2;P2;SDS_P1;SDS_P2;PMS_P1;PMS_P2;Temp;Humidity;BMP_temperature;BMP_pressure;BME280_temperature;BME280_humidity;BME280_pressure;Samples;Min_cycle;Max_cycle;Signal;HPM_P1;HPM_P2
2023/05/02 00:02:09;;;;;;;11.27;7.93;;;;;;;11.10;100.00;100093.03;5055338;28;20051;-71
2023/05/02 00:04:35;;;;;;;12.60;8.30;;;;;;;11.04;100.00;100089.31;5059400;28;20020;-73
2023/05/02 00:07:00;;;;;;;14.10;8.25;;;;;;;10.94;100.00;100094.41;5058749;28;20036;-71
2023/05/02 00:09:28;;;;;;;15.55;9.13;;;;;;;10.91;100.00;100098.28;5058853;28;20021;-70
2023/05/02 00:11:59;;;;;;;12.10;9.13;;;;;;;10.86;100.00;100091.22;5055057;28;20063;-73
2023/05/02 00:14:36;;;;;;;10.48;8.40;;;;;;;10.83;100.00;100095.03;5051618;28;20037;-72
2023/05/02 00:17:16;;;;;;;13.20;8.85;;;;;;;10.86;100.00;100096.91;5052380;28;20040;-72
2023/05/02 00:19:42;;;;;;;13.70;8.73;;;;;;;10.85;100.00;100088.84;5051396;28;20116;-73
2023/05/02 00:22:12;;;;;;;14.55;9.15;;;;;;;10.84;100.00;100090.91;5052875;28;20116;-71
2023/05/02 00:24:41;;;;;;;10.57;8.63;;;;;;;10.86;100.00;100088.34;5052935;28;20112;-72
2023/05/02 00:27:06;;;;;;;13.52;8.18;;;;;;;10.82;100.00;100081.28;5052776;28;20029;-72
2023/05/02 00:29:33;;;;;;;13.05;8.45;;;;;;;10.83;100.00;100082.81;5052693;28;20441;-73
2023/05/02 00:31:58;;;;;;;14.38;8.73;;;;;;;10.80;100.00;100078.91;5052773;28;20044;-71
2023/05/02 00:34:29;;;;;;;11.25;8.68;;;;;;;10.83;100.00;100077.09;5052548;28;20060;-72
2023/05/02 00:36:55;;;;;;;11.65;8.25;;;;;;;10.80;100.00;100075.25;5035071;28;20112;-71
2023/05/02 00:39:38;;;;;;;12.55;8.73;;;;;;;10.80;100.00;100073.19;5052228;28;20069;-71
2023/05/02 00:42:03;;;;;;;11.02;8.07;;;;;;;10.84;100.00;100078.69;5052468;28;20025;-72
2023/05/02 00:44:29;;;;;;;10.40;7.63;;;;;;;10.87;100.00;100077.69;5018139;28;20371;-71
2023/05/02 00:46:56;;;;;;;12.55;8.95;;;;;;;10.88;100.00;100074.31;5051307;28;20029;-71
2023/05/02 00:49:22;;;;;;;12.85;7.53;;;;;;;10.88;100.00;100065.75;5052275;28;20393;-70
2023/05/02 00:51:48;;;;;;;11.80;7.70;;;;;;;10.88;100.00;100064.97;5052098;28;20502;-71
2023/05/02 00:54:14;;;;;;;12.55;7.68;;;;;;;10.81;100.00;100049.03;5052382;28;20033;-71
2023/05/02 00:56:40;;;;;;;10.48;6.97;;;;;;;10.88;100.00;100064.97;5053266;28;20096;-70
2023/05/02 00:59:08;;;;;;;12.55;8.38;;;;;;;10.92;100.00;100069.19;5053087;28;20108;-70
2023/05/02 01:01:55;;;;;;;8.77;6.72;;;;;;;10.91;100.00;100067.63;5035401;28;20052;-71
2023/05/02 01:05:06;;;;;;;11.60;7.75;;;;;;;10.92;100.00;100069.19;5035406;28;20082;-71
2023/05/02 01:07:48;;;;;;;12.05;7.65;;;;;;;10.91;100.00;100067.63;5032546;28;20052;-71
2023/05/02 01:10:32;;;;;;;11.52;7.63;;;;;;;10.91;100.00;100069.69;5051935;28;20087;-70
2023/05/02 01:13:03;;;;;;;10.55;7.90;;;;;;;10.90;100.00;100066.03;5053126;28;20029;-70
2023/05/02 01:15:29;;;;;;;10.90;7.60;;;;;;;10.90;100.00;100062.41;5052002;28;20104;-71
2023/05/02 01:17:56;;;;;;;10.68;7.82;;;;;;;10.88;100.00;100071.47;5034886;28;20059;-70
2023/05/02 01:20:26;;;;;;;12.48;7.32;;;;;;;10.85;100.00;100071.69;5051783;28;20044;-70
2023/05/02 01:23:15;;;;;;;10.57;7.10;;;;;;;10.79;100.00;100074.47;5051622;28;20515;-69
2023/05/02 01:26:13;;;;;;;15.32;8.60;;;;;;;10.76;100.00;100074.69;5051829;28;20032;-71
2023/05/02 01:29:07;;;;;;;12.57;7.45;;;;;;;10.65;100.00;100075.31;5050698;28;20390;-71
2023/05/02 01:31:38;;;;;;;13.20;8.75;;;;;;;10.62;100.00;100076.34;5051565;28;20508;-70
2023/05/02 01:34:24;;;;;;;10.23;7.68;;;;;;;10.58;100.00;100084.31;5051595;28;20100;-70
2023/05/02 01:36:52;;;;;;;11.07;8.27;;;;;;;10.59;100.00;100079.38;5049792;28;20047;-70
2023/05/02 01:39:20;;;;;;;12.65;7.35;;;;;;;10.58;100.00;100075.72;5034975;28;20043;-70
2023/05/02 01:41:52;;;;;;;13.20;7.57;;;;;;;10.62;100.00;100084.13;5051439;28;20083;-71
2023/05/02 01:44:19;;;;;;;12.38;7.47;;;;;;;10.63;100.00;100083.59;5052625;28;20478;-70
2023/05/02 01:46:45;;;;;;;10.75;8.38;;;;;;;10.63;100.00;100069.31;5051289;28;20025;-70
2023/05/02 01:49:12;;;;;;;9.07;7.57;;;;;;;10.65;100.00;100075.31;5034668;28;20098;-70
2023/05/02 01:51:43;;;;;;;10.43;8.35;;;;;;;10.67;100.00;100078.47;5051678;28;20050;-70
2023/05/02 01:54:09;;;;;;;10.95;7.65;;;;;;;10.72;100.00;100083.50;5034597;28;20029;-69
2023/05/02 01:56:37;;;;;;;10.60;7.25;;;;;;;10.79;100.00;100083.03;5052332;28;20103;-72
2023/05/02 01:59:21;;;;;;;9.93;7.35;;;;;;;10.85;100.00;100088.84;5051193;28;20045;-71
2023/05/02 02:02:03;;;;;;;11.40;7.38;;;;;;;10.90;100.00;100077.47;5051204;28;20039;-71
2023/05/02 02:04:29;;;;;;;9.52;7.30;;;;;;;10.96;100.00;100080.41;5050892;28;20054;-71
2023/05/02 02:07:01;;;;;;;12.52;7.47;;;;;;;11.02;100.00;100084.13;5049818;28;20036;-72
2023/05/02 02:09:32;;;;;;;8.10;6.72;;;;;;;11.08;100.00;100079.25;5051216;28;20497;-72
2023/05/02 02:12:22;;;;;;;10.90;6.85;;;;;;;11.09;100.00;100086.53;5049029;28;20033;-69
2023/05/02 02:15:25;;;;;;;8.63;7.05;;;;;;;11.07;100.00;100092.00;5051183;28;20430;-71
2023/05/02 02:18:01;;;;;;;9.55;7.10;;;;;;;11.10;100.00;100090.97;5049906;28;20377;-71
2023/05/02 02:20:43;;;;;;;7.88;7.03;;;;;;;11.11;100.00;100091.75;5050954;28;20025;-70
2023/05/02 02:23:13;;;;;;;10.20;6.82;;;;;;;11.11;100.00;100091.75;5049849;28;20029;-72
2023/05/02 02:25:39;;;;;;;11.50;7.45;;;;;;;11.13;100.00;100095.72;5049709;28;20364;-70
2023/05/02 02:28:07;;;;;;;9.25;7.35;;;;;;;11.13;100.00;100098.56;5033159;28;20036;-70
2023/05/02 02:30:33;;;;;;;9.75;7.55;;;;;;;11.19;100.00;100112.94;5053099;28;20644;-74
2023/05/02 02:32:59;;;;;;;10.68;7.03;;;;;;;11.16;100.00;100113.94;5054851;28;20031;-71
2023/05/02 02:35:32;;;;;;;11.02;7.20;;;;;;;11.18;100.00;100114.22;5055608;28;20049;-71
2023/05/02 02:38:37;;;;;;;8.13;7.20;;;;;;;11.18;100.00;100120.72;5038860;28;20048;-70
2023/05/02 02:41:24;;;;;;;10.20;7.45;;;;;;;11.20;100.00;100123.88;5055898;28;20052;-69
2023/05/02 02:44:13;;;;;;;10.65;7.60;;;;;;;11.25;100.00;100130.97;5039316;28;20040;-71
2023/05/02 02:47:03;;;;;;;10.85;7.30;;;;;;;11.26;100.00;100133.31;5053337;28;20039;-69
2023/05/02 02:49:55;;;;;;;11.25;7.53;;;;;;;11.29;100.00;100138.03;5055341;28;20174;-69
2023/05/02 02:52:49;;;;;;;14.05;8.05;;;;;;;11.22;100.00;100149.13;5013611;28;20080;-71
2023/05/02 02:55:41;;;;;;;12.32;7.28;;;;;;;11.20;100.00;100146.75;5055250;28;20091;-72
2023/05/02 02:58:28;;;;;;;;;;;;;;;11.15;100.00;100147.47;5054928;28;20040;-71
2023/05/02 03:01:20;;;;;;;11.73;6.88;;;;;;;11.18;100.00;100157.13;5024746;28;19944;-71
2023/05/02 03:03:47;;;;;;;7.63;6.82;;;;;;;11.15;100.00;100152.41;5055225;28;20047;-71
2023/05/02 03:06:28;;;;;;;10.65;6.80;;;;;;;10.93;100.00;100155.72;5053806;28;20079;-71
2023/05/02 03:08:54;;;;;;;9.25;6.97;;;;;;;11.01;100.00;100158.97;5054107;28;20028;-72
2023/05/02 03:11:19;;;;;;;10.25;7.00;;;;;;;11.12;100.00;100162.78;5055118;28;20107;-70
2023/05/02 03:13:46;;;;;;;9.23;6.60;;;;;;;11.19;100.00;100161.56;5053499;28;20036;-72
2023/05/02 03:16:21;;;;;;;9.38;6.07;;;;;;;11.27;100.00;100154.13;5053783;28;20025;-71
2023/05/02 03:18:49;;;;;;;11.07;5.88;;;;;;;11.32;100.00;100147.69;5055200;28;20068;-70
2023/05/02 03:21:16;;;;;;;10.52;5.80;;;;;;;11.47;100.00;100159.06;5055226;28;20431;-70
2023/05/02 03:23:44;;;;;;;10.05;5.97;;;;;;;11.58;100.00;100157.09;5053724;28;20497;-72
2023/05/02 03:26:09;;;;;;;11.60;6.30;;;;;;;11.61;100.00;100156.09;5054978;28;20078;-70
2023/05/02 03:28:35;;;;;;;9.27;6.32;;;;;;;11.68;100.00;100164.22;5053497;28;20029;-70
2023/05/02 03:31:01;;;;;;;6.57;5.43;;;;;;;11.73;100.00;100168.44;5037004;28;20054;-71
2023/05/02 03:33:27;;;;;;;10.93;5.50;;;;;;;11.70;100.00;100178.03;5055026;28;20029;-71
2023/05/02 03:35:53;;;;;;;7.10;5.05;;;;;;;11.77;100.00;100181.22;5054665;28;20431;-70
2023/05/02 03:38:18;;;;;;;7.88;5.03;;;;;;;11.90;100.00;100185.78;5054626;28;20112;-69
2023/05/02 03:40:43;;;;;;;7.82;5.95;;;;;;;11.91;100.00;100178.78;5053007;28;20025;-70
2023/05/02 03:43:10;;;;;;;8.13;5.50;;;;;;;11.98;100.00;100178.31;5050536;28;20072;-70
2023/05/02 03:45:35;;;;;;;8.93;5.40;;;;;;;11.96;100.00;100189.50;5054664;28;20029;-72
2023/05/02 03:48:02;;;;;;;6.35;5.07;;;;;;;12.04;100.00;100191.41;5055218;28;20036;-71
2023/05/02 03:50:31;;;;;;;5.88;4.78;;;;;;;11.95;100.00;100188.72;5054695;28;20025;-71
2023/05/02 03:52:57;;;;;;;9.13;5.18;;;;;;;11.84;100.00;100180.00;5054581;28;20509;-71
2023/05/02 03:55:23;;;;;;;5.93;4.70;;;;;;;11.94;100.00;100194.94;5053942;28;20359;-69
2023/05/02 03:57:49;;;;;;;8.10;5.38;;;;;;;11.96;100.00;100201.72;5054329;28;20036;-71
2023/05/02 04:00:17;;;;;;;5.63;4.45;;;;;;;11.98;100.00;100204.09;5053769;28;20367;-71
2023/05/02 04:02:42;;;;;;;7.70;4.65;;;;;;;12.09;100.00;100209.94;5054560;28;20116;-71
2023/05/02 04:05:07;;;;;;;7.03;4.38;;;;;;;12.05;100.00;100212.25;5054459;28;20104;-70
2023/05/02 04:07:34;;;;;;;8.10;5.20;;;;;;;11.97;100.00;100216.81;5054394;28;20032;-71
2023/05/02 04:10:01;;;;;;;10.63;5.30;;;;;;;12.12;100.00;100212.56;5053154;28;20049;-72
2023/05/02 04:12:29;;;;;;;6.45;4.53;;;;;;;12.20;100.00;100221.50;5054068;28;20040;-72
2023/05/02 04:14:54;;;;;;;5.93;4.68;;;;;;;12.30;100.00;100222.91;5053640;28;20048;-71
2023/05/02 04:17:21;;;;;;;7.05;5.13;;;;;;;12.35;100.00;100230.75;5053058;28;20033;-71
2023/05/02 04:19:47;;;;;;;8.00;4.90;;;;;;;12.39;100.00;100237.06;5057595;28;20044;-71
2023/05/02 04:22:15;;;;;;;8.45;4.90;;;;;;;12.34;100.00;100245.59;5059976;28;20100;-71
2023/05/02 04:24:40;;;;;;;6.22;4.72;;;;;;;12.26;100.00;100242.38;5059855;28;20025;-70
2023/05/02 04:27:06;;;;;;;8.63;5.40;;;;;;;12.29;100.00;100247.13;5056776;28;20029;-71
2023/05/02 04:29:33;;;;;;;9.05;5.32;;;;;;;12.34;100.00;100252.13;5053665;28;20029;-70
2023/05/02 04:32:00;;;;;;;9.35;5.32;;;;;;;12.30;100.00;100263.03;5053587;28;20041;-71
2023/05/02 04:34:27;;;;;;;5.30;4.32;;;;;;;12.25;100.00;100275.22;5053361;28;20120;-71
2023/05/02 04:36:53;;;;;;;7.15;4.95;;;;;;;12.17;100.00;100272.00;5053471;28;20466;-70
2023/05/02 04:39:21;;;;;;;7.43;5.40;;;;;;;12.11;100.00;100278.97;5051247;28;20383;-71
2023/05/02 04:41:47;;;;;;;6.57;4.78;;;;;;;11.92;100.00;100281.34;5053338;28;20021;-72
2023/05/02 04:44:12;;;;;;;5.80;5.10;;;;;;;11.94;100.00;100301.69;5053323;28;20033;-70
2023/05/02 04:46:40;;;;;;;9.73;5.25;;;;;;;11.98;100.00;100295.72;5053474;28;20036;-70
2023/05/02 04:49:06;;;;;;;7.60;5.57;;;;;;;12.02;100.00;100313.47;5053588;28;20032;-72
2023/05/02 04:51:34;;;;;;;9.60;5.32;;;;;;;11.99;100.00;100305.91;5051941;28;20411;-71
2023/05/02 04:54:00;;;;;;;7.20;5.57;;;;;;;12.05;100.00;100307.53;5053178;28;20036;-71
2023/05/02 04:56:32;;;;;;;6.88;5.25;;;;;;;12.12;100.00;100315.69;5052365;28;20083;-72
2023/05/02 04:58:58;;;;;;;12.02;7.07;;;;;;;12.17;100.00;100314.97;5053252;28;20104;-71
2023/05/02 05:01:27;;;;;;;10.30;6.18;;;;;;;12.17;100.00;100308.44;5052774;28;20049;-71
2023/05/02 05:03:55;;;;;;;7.82;6.47;;;;;;;12.07;100.00;100316.41;5053236;28;20024;-70
2023/05/02 05:06:23;;;;;;;8.82;6.10;;;;;;;12.03;100.00;100320.78;5053010;28;20120;-71
2023/05/02 05:08:48;;;;;;;6.38;5.55;;;;;;;11.98;100.00;100318.63;5053201;28;20048;-70
2023/05/02 05:11:15;;;;;;;9.20;6.63;;;;;;;11.98;100.00;100319.44;5052829;28;20025;-70
2023/05/02 05:13:41;;;;;;;9.02;6.22;;;;;;;12.10;100.00;100321.16;5051953;28;20031;-71
2023/05/02 05:16:07;;;;;;;9.85;7.00;;;;;;;12.25;100.00;100324.69;5052098;28;20086;-71
2023/05/02 05:18:39;;;;;;;10.27;6.68;;;;;;;12.41;100.00;100325.38;5053226;28;20040;-72
2023/05/02 05:21:10;;;;;;;9.50;6.03;;;;;;;12.54;100.00;100332.31;5052823;28;20482;-71
2023/05/02 05:23:37;;;;;;;8.73;6.82;;;;;;;12.65;100.00;100329.53;5053042;28;20025;-70
2023/05/02 05:26:11;;;;;;;10.15;5.85;;;;;;;12.76;100.00;100328.88;5051668;28;20029;-71
2023/05/02 05:28:36;;;;;;;8.00;6.13;;;;;;;12.79;100.00;100325.00;5053207;28;20021;-72
2023/05/02 05:31:10;;;;;;;10.90;6.55;;;;;;;12.88;100.00;100329.75;5052743;28;20032;-71
2023/05/02 05:33:37;;;;;;;12.45;8.00;;;;;;;12.92;100.00;100330.31;5051641;28;20139;-72
2023/05/02 05:36:07;;;;;;;8.45;5.72;;;;;;;13.01;100.00;100342.38;5051553;28;20060;-72
2023/05/02 05:38:33;;;;;;;8.70;6.03;;;;;;;13.12;100.00;100347.44;5051501;28;20029;-71
2023/05/02 05:41:00;;;;;;;10.07;6.10;;;;;;;13.22;100.00;100343.06;5034936;28;20031;-72
2023/05/02 05:43:26;;;;;;;11.23;7.57;;;;;;;13.26;100.00;100346.50;5051349;28;20028;-70
2023/05/02 05:45:52;;;;;;;12.73;6.68;;;;;;;13.27;100.00;100348.06;5051632;28;20033;-72
2023/05/02 05:48:19;;;;;;;7.53;5.75;;;;;;;13.17;100.00;100352.44;5051442;28;20448;-71
2023/05/02 05:50:45;;;;;;;9.52;7.05;;;;;;;13.18;100.00;100350.34;5051786;28;20039;-71
2023/05/02 05:53:11;;;;;;;13.25;6.85;;;;;;;13.27;100.00;100356.69;5052478;28;20438;-72
2023/05/02 05:55:37;;;;;;;9.57;6.28;;;;;;;13.41;100.00;100364.34;5050892;28;20106;-70
2023/05/02 05:58:04;;;;;;;9.05;6.43;;;;;;;13.52;100.00;100355.84;5052810;28;20025;-76
2023/05/02 06:00:29;;;;;;;8.43;6.18;;;;;;;13.72;100.00;100362.75;5051514;28;20124;-76
2023/05/02 06:02:56;;;;;;;8.82;6.57;;;;;;;13.88;100.00;100362.06;5052151;28;20562;-78
2023/05/02 06:05:22;;;;;;;8.52;6.50;;;;;;;14.01;100.00;100368.13;5054352;28;20076;-79
2023/05/02 06:07:48;;;;;;;7.70;5.90;;;;;;;14.14;100.00;100368.41;5054004;28;20048;-74
2023/05/02 06:10:14;;;;;;;8.38;6.25;;;;;;;14.23;100.00;100368.19;5056273;28;20041;-73
2023/05/02 06:12:41;;;;;;;9.88;7.00;;;;;;;14.31;100.00;100374.25;5057042;28;20020;-73
2023/05/02 06:15:06;;;;;;;10.10;6.35;;;;;;;14.47;100.00;100381.34;5056428;28;20052;-75
2023/05/02 06:17:33;;;;;;;8.00;5.88;;;;;;;14.64;100.00;100379.31;5056406;28;20063;-74
2023/05/02 06:19:59;;;;;;;9.30;5.93;;;;;;;14.77;100.00;100374.63;5054855;28;20021;-74
2023/05/02 06:22:25;;;;;;;7.32;5.53;;;;;;;14.85;100.00;100377.81;5056227;28;20108;-75
2023/05/02 06:24:51;;;;;;;8.70;6.40;;;;;;;14.95;100.00;100384.09;5054993;28;20100;-73
2023/05/02 06:27:25;;;;;;;10.00;6.32;;;;;;;15.07;100.00;100386.44;5055147;28;20122;-74
2023/05/02 06:29:52;;;;;;;9.60;6.15;;;;;;;15.12;100.00;100399.28;5054927;28;20029;-76
2023/05/02 06:32:18;;;;;;;10.48;6.55;;;;;;;15.11;100.00;100392.75;5021647;28;20036;-75
2023/05/02 06:34:44;;;;;;;9.40;6.03;;;;;;;15.19;100.00;100399.53;5021524;28;20033;-75
2023/05/02 06:37:11;;;;;;;8.38;5.82;;;;;;;15.22;100.00;100407.13;5055907;28;20027;-75
2023/05/02 06:39:36;;;;;;;9.38;5.82;;;;;;;15.27;100.00;100409.22;5054660;28;20474;-75
2023/05/02 06:42:10;;;;;;;6.72;4.97;;;;;;;15.31;100.00;100408.97;5054411;28;20040;-76
2023/05/02 06:44:38;;;;;;;7.75;6.28;;;;;;;15.28;100.00;100410.00;5055858;28;20027;-78
2023/05/02 06:47:06;;;;;;;11.02;5.18;;;;;;;15.33;100.00;100409.22;5043199;28;20061;-77
2023/05/02 06:49:32;;;;;;;11.73;5.38;;;;;;;15.49;100.00;100422.06;5055653;28;20060;-78
2023/05/02 06:51:58;;;;;;;7.40;5.75;;;;;;;15.66;100.00;100435.16;5056192;28;20024;-77
2023/05/02 06:54:25;;;;;;;6.30;5.25;;;;;;;15.86;100.00;100428.31;5056624;28;20075;-81
2023/05/02 06:56:51;;;;;;;7.72;5.65;;;;;;;15.94;100.00;100426.47;5054236;28;20453;-80
2023/05/02 06:59:17;;;;;;;8.35;5.78;;;;;;;16.10;100.00;100433.50;5054327;28;20095;-82
2023/05/02 07:01:47;;;;;;;8.98;6.10;;;;;;;16.27;100.00;100439.22;5049627;28;20057;-78
2023/05/02 07:04:12;;;;;;;9.50;5.93;;;;;;;16.37;100.00;100440.47;5055872;28;20039;-76
2023/05/02 07:06:39;;;;;;;8.05;5.88;;;;;;;16.47;100.00;100436.00;5057518;28;20048;-79
2023/05/02 07:09:06;;;;;;;6.30;5.60;;;;;;;16.60;100.00;100447.75;5057630;28;20029;-79
2023/05/02 07:11:32;;;;;;;12.23;5.88;;;;;;;16.45;100.00;100427.09;5055794;28;20087;-84
2023/05/02 07:13:59;;;;;;;7.50;5.85;;;;;;;16.56;100.00;100441.47;5055638;28;20497;-77
2023/05/02 07:16:26;;;;;;;6.65;5.65;;;;;;;16.63;100.00;100443.03;5055204;28;20513;-77
2023/05/02 07:18:53;;;;;;;8.73;6.00;;;;;;;16.72;100.00;100451.38;5055331;28;20167;-81
2023/05/02 07:21:18;;;;;;;6.93;5.95;;;;;;;17.04;100.00;100454.63;5057129;28;20029;-79
2023/05/02 07:23:43;;;;;;;8.48;6.45;;;;;;;17.11;100.00;100442.47;5055769;28;20255;-79
2023/05/02 07:26:10;;;;;;;9.63;6.18;;;;;;;17.44;100.00;100453.81;5054790;28;20029;-80
2023/05/02 07:28:36;;;;;;;7.60;5.47;;;;;;;17.77;100.00;100455.63;5053473;28;20037;-79
2023/05/02 07:31:10;;;;;;;8.13;6.18;;;;;;;18.03;100.00;100460.91;5056000;28;20098;-76
2023/05/02 07:33:37;;;;;;;9.20;6.40;;;;;;;18.23;100.00;100466.97;5055252;28;20489;-77
2023/05/02 07:36:04;;;;;;;9.70;5.45;;;;;;;18.44;100.00;100452.81;5054028;28;20075;-76
2023/05/02 07:38:29;;;;;;;11.15;5.25;;;;;;;18.66;100.00;100457.56;5054922;28;20055;-77
2023/05/02 07:41:00;;;;;;;5.85;5.35;;;;;;;18.70;100.00;100469.63;5054622;28;20033;-75
2023/05/02 07:43:26;;;;;;;7.63;5.50;;;;;;;18.93;100.00;100472.97;5054346;28;20112;-73
2023/05/02 07:45:53;;;;;;;10.85;5.90;;;;;;;19.17;100.00;100466.34;5053776;28;20132;-74
2023/05/02 07:48:19;;;;;;;7.57;5.72;;;;;;;19.19;100.00;100478.97;5054700;28;20032;-77
2023/05/02 07:50:52;;;;;;;6.45;4.97;;;;;;;19.64;100.00;100470.34;5053527;28;20051;-74
2023/05/02 07:53:19;;;;;;;7.75;4.53;;;;;;;19.96;94.99;100484.84;5054866;28;20114;-78
2023/05/02 07:55:45;;;;;;;6.63;5.22;;;;;;;20.50;94.20;100486.47;5054423;28;20027;-77
2023/05/02 07:58:11;;;;;;;8.07;5.07;;;;;;;20.84;89.24;100496.09;5054892;28;20095;-80
2023/05/02 08:00:37;;;;;;;8.82;5.07;;;;;;;21.31;87.29;100487.34;5054458;28;20458;-75
2023/05/02 08:03:11;;;;;;;6.05;5.40;;;;;;;21.67;81.34;100496.31;5054260;28;20037;-75
2023/05/02 08:05:37;;;;;;;8.18;5.65;;;;;;;21.74;80.28;100501.41;5054335;28;20025;-78
2023/05/02 08:08:04;;;;;;;6.45;5.07;;;;;;;22.08;79.76;100501.31;5054264;28;20127;-77
2023/05/02 08:10:29;;;;;;;6.53;5.35;;;;;;;22.35;76.29;100501.94;5054366;28;20029;-77
2023/05/02 08:12:55;;;;;;;7.43;5.53;;;;;;;22.16;75.36;100504.31;5054047;28;20036;-76
2023/05/02 08:15:22;;;;;;;8.65;5.32;;;;;;;22.04;75.92;100504.59;5054100;28;20111;-75
2023/05/02 08:17:48;;;;;;;6.90;5.10;;;;;;;22.07;77.35;100509.28;5054263;28;20055;-73
2023/05/02 08:20:19;;;;;;;7.15;5.45;;;;;;;22.14;74.82;100504.06;5053617;28;20069;-77
2023/05/02 08:22:44;;;;;;;7.28;4.90;;;;;;;22.22;76.11;100502.06;5054041;28;20025;-76
2023/05/02 08:25:10;;;;;;;7.07;6.00;;;;;;;21.91;73.23;100513.41;5054206;28;20421;-76
2023/05/02 08:27:36;;;;;;;9.15;6.38;;;;;;;21.61;75.85;100502.25;5054180;28;20043;-76
2023/05/02 08:30:03;;;;;;;7.28;5.97;;;;;;;21.67;78.02;100502.91;5053892;28;20119;-79
2023/05/02 08:32:28;;;;;;;9.20;5.63;;;;;;;21.72;78.28;100497.50;5054732;28;20091;-79
2023/05/02 08:35:02;;;;;;;7.03;6.32;;;;;;;21.96;76.52;100503.75;5058478;28;20029;-81
2023/05/02 08:37:30;;;;;;;14.35;6.05;;;;;;;22.13;74.66;100509.13;5057226;28;20061;-80
2023/05/02 08:39:56;;;;;;;9.57;6.68;;;;;;;22.09;73.04;100509.47;5056093;28;20044;-81
2023/05/02 08:42:22;;;;;;;7.13;6.10;;;;;;;22.18;74.63;100513.25;5054670;28;20111;-80
2023/05/02 08:44:48;;;;;;;8.60;6.05;;;;;;;22.22;72.32;100514.47;5052470;28;20545;-80
2023/05/02 08:47:14;;;;;;;8.88;6.85;;;;;;;22.22;72.32;100520.31;5053754;28;20025;-78
2023/05/02 08:49:42;;;;;;;11.32;7.15;;;;;;;22.24;71.65;100528.44;5052174;28;20053;-77
2023/05/02 08:52:09;;;;;;;7.80;6.40;;;;;;;22.29;69.71;100524.63;5049346;28;20033;-79
2023/05/02 08:54:44;;;;;;;8.02;6.82;;;;;;;22.30;67.95;100532.00;5052458;28;20031;-76
2023/05/02 08:57:10;;;;;;;8.73;6.55;;;;;;;22.17;69.70;100529.19;5051590;28;20097;-75
2023/05/02 08:59:35;;;;;;;8.23;6.40;;;;;;;21.72;70.01;100530.28;5051149;28;20176;-78
2023/05/02 09:02:12;;;;;;;9.45;6.70;;;;;;;21.61;70.96;100533.47;5053223;28;20124;-77
2023/05/02 09:04:54;;;;;;;8.30;6.88;;;;;;;21.36;68.60;100538.78;5053065;28;20540;-79
2023/05/02 09:07:21;;;;;;;10.90;7.20;;;;;;;21.17;71.03;100544.75;5052957;28;20186;-77
2023/05/02 09:09:48;;;;;;;10.75;6.82;;;;;;;21.04;74.60;100541.84;5053287;28;20377;-77
2023/05/02 09:12:15;;;;;;;8.15;6.15;;;;;;;20.74;74.58;100541.44;5051715;28;20124;-76
2023/05/02 09:14:43;;;;;;;8.52;6.35;;;;;;;20.55;78.43;100538.59;5052144;28;20045;-77
2023/05/02 09:17:11;;;;;;;9.20;6.57;;;;;;;20.76;78.60;100550.38;5049721;28;20455;-76
2023/05/02 09:19:38;;;;;;;8.63;6.32;;;;;;;20.68;79.29;100543.66;5051983;28;20166;-77
2023/05/02 09:22:04;;;;;;;8.45;6.40;;;;;;;20.57;77.85;100552.56;5051577;28;20462;-75
2023/05/02 09:24:31;;;;;;;7.65;6.47;;;;;;;20.63;77.80;100556.16;5052810;28;20060;-76
2023/05/02 09:26:58;;;;;;;9.65;6.63;;;;;;;20.79;80.07;100552.19;5052607;28;20045;-78
2023/05/02 09:29:37;;;;;;;8.15;6.75;;;;;;;21.16;76.90;100556.94;5052915;28;20222;-77
2023/05/02 09:32:04;;;;;;;9.07;6.43;;;;;;;21.21;75.00;100562.63;5052840;28;20033;-78
2023/05/02 09:34:30;;;;;;;8.38;5.95;;;;;;;21.38;69.16;100565.16;5053066;28;20029;-78
2023/05/02 09:36:57;;;;;;;8.88;6.30;;;;;;;21.30;68.79;100572.22;5052952;28;20025;-77
2023/05/02 09:39:27;;;;;;;8.60;6.47;;;;;;;21.40;70.31;100576.22;5052986;28;20029;-78
2023/05/02 09:41:55;;;;;;;9.30;6.10;;;;;;;21.43;67.45;100583.84;5055901;28;20036;-78
2023/05/02 09:44:22;;;;;;;8.48;6.10;;;;;;;21.43;65.14;100581.72;5055663;28;20559;-78
2023/05/02 09:46:52;;;;;;;8.15;6.68;;;;;;;21.06;62.87;100591.50;5057211;28;20108;-78
2023/05/02 09:49:43;;;;;;;8.88;7.10;;;;;;;21.28;65.68;100590.25;5055790;28;20048;-75
2023/05/02 09:52:12;;;;;;;7.63;6.65;;;;;;;21.58;63.82;100584.81;5039918;28;20056;-76
2023/05/02 09:54:37;;;;;;;7.85;7.03;;;;;;;21.71;66.89;100583.22;5056524;28;20099;-77
2023/05/02 09:57:05;;;;;;;10.98;7.03;;;;;;;22.04;65.21;100591.13;5055749;28;20195;-76
2023/05/02 09:59:32;;;;;;;13.07;7.38;;;;;;;22.47;62.57;100596.41;5056445;28;20138;-76
2023/05/02 10:02:01;;;;;;;10.32;7.60;;;;;;;22.82;62.05;100597.81;5055226;28;20471;-74
2023/05/02 10:04:29;;;;;;;9.98;6.50;;;;;;;23.02;61.40;100602.06;5038611;28;20041;-77
2023/05/02 10:06:56;;;;;;;9.98;7.82;;;;;;;22.57;58.73;100597.44;5054983;28;20061;-76
2023/05/02 10:09:22;;;;;;;10.40;6.70;;;;;;;22.48;59.69;100606.69;5038405;28;20033;-75
2023/05/02 10:12:07;;;;;;;8.88;7.10;;;;;;;22.40;58.68;100611.69;5056224;28;20047;-76
2023/05/02 10:14:56;;;;;;;10.63;7.10;;;;;;;22.64;59.17;100610.53;5056166;28;20032;-74
2023/05/02 10:17:28;;;;;;;7.82;6.82;;;;;;;22.87;57.80;100605.66;5055901;28;20548;-74
2023/05/02 10:20:00;;;;;;;9.52;6.03;;;;;;;22.98;59.25;100602.44;5038373;28;20036;-73
2023/05/02 10:22:26;;;;;;;9.88;6.43;;;;;;;22.86;54.25;100599.03;5054792;28;20024;-76
2023/05/02 10:24:52;;;;;;;8.82;5.90;;;;;;;22.61;53.04;100605.84;5056203;28;20024;-74
2023/05/02 10:27:18;;;;;;;9.20;6.50;;;;;;;22.61;54.93;100603.72;5054948;28;20029;-75
2023/05/02 10:29:45;;;;;;;8.18;6.22;;;;;;;22.61;57.09;100603.72;5055923;28;20025;-79
2023/05/02 10:32:27;;;;;;;10.20;6.60;;;;;;;22.66;54.25;100610.75;5054763;28;20076;-74
2023/05/02 10:35:04;;;;;;;9.02;6.80;;;;;;;22.77;55.63;100604.59;5056112;28;20087;-77
2023/05/02 10:37:35;;;;;;;8.45;6.22;;;;;;;22.63;53.98;100609.75;5054636;28;20071;-75
2023/05/02 10:40:02;;;;;;;7.65;6.65;;;;;;;22.65;51.86;100609.19;5038632;28;20335;-73
2023/05/02 10:42:27;;;;;;;8.75;6.70;;;;;;;22.77;52.48;100614.13;5053348;28;20039;-73
2023/05/02 10:44:53;;;;;;;9.77;7.25;;;;;;;22.81;51.76;100617.47;5054446;28;20385;-75
2023/05/02 10:47:20;;;;;;;8.88;6.43;;;;;;;22.67;53.00;100613.06;5054005;28;20072;-75
2023/05/02 10:50:02;;;;;;;9.77;6.97;;;;;;;22.61;53.44;100611.66;5054240;28;20025;-73
2023/05/02 10:52:33;;;;;;;9.27;7.03;;;;;;;22.31;55.29;100606.38;5054272;28;20470;-74
2023/05/02 10:55:22;;;;;;;9.60;6.13;;;;;;;21.96;48.24;100617.25;5052802;28;20021;-74
2023/05/02 10:58:05;;;;;;;9.13;6.18;;;;;;;22.01;48.61;100621.38;5053282;28;20041;-73
2023/05/02 11:00:37;;;;;;;7.00;6.25;;;;;;;21.99;47.92;100627.75;5054239;28;20040;-73
2023/05/02 11:03:02;;;;;;;9.13;6.20;;;;;;;22.45;50.01;100625.31;5053493;28;20099;-73
2023/05/02 11:05:29;;;;;;;9.05;6.15;;;;;;;22.62;50.01;100628.56;5054222;28;20405;-74
2023/05/02 11:08:16;;;;;;;11.52;6.35;;;;;;;22.46;44.22;100633.50;5052872;28;20536;-74
2023/05/02 11:10:45;;;;;;;9.82;6.53;;;;;;;22.41;44.86;100627.81;5054491;28;20096;-75
2023/05/02 11:13:11;;;;;;;10.10;6.10;;;;;;;22.47;44.83;100625.56;5054892;28;20044;-75
2023/05/02 11:15:42;;;;;;;11.23;6.30;;;;;;;22.86;42.44;100639.84;5055012;28;20047;-74
2023/05/02 11:18:11;;;;;;;10.23;6.88;;;;;;;22.90;41.21;100633.69;5055416;28;20028;-74
2023/05/02 11:20:39;;;;;;;8.70;6.07;;;;;;;22.62;42.24;100643.13;5055268;28;20025;-75
2023/05/02 11:23:23;;;;;;;12.30;7.13;;;;;;;22.12;45.74;100638.56;5053820;28;20482;-73
2023/05/02 11:25:51;;;;;;;9.98;6.45;;;;;;;21.68;45.66;100643.31;5053599;28;20565;-73
2023/05/02 11:28:44;;;;;;;7.95;6.40;;;;;;;21.54;44.50;100644.66;5037012;28;20059;-74
2023/05/02 11:31:28;;;;;;;8.30;6.63;;;;;;;21.13;47.88;100648.97;5055037;28;20021;-74